ENTO

Sandefjord Torp Airport

Torp, Norway
METAR ENTO 221720Z 24010KT CAVOK 21/05 Q1018
Observed Flight Rules
May-22 @ 17:20 UTC (31 minutes ago) Visual Flight Rules
Wind Visibility Clouds
240° at 10 knots 10,000+ meters
  • Clear skies
Temperatures Readings
Current 21°C / 70°F
Dewpoint 5°C / 41°F
Humidity 35%
Altimeter 30.06" Hg
Pressure 1018 hPa
Elevation 88
METAR ENTO 221720Z 24010KT CAVOK 21/05 Q1018
Observed Flight Rules
May-22 @ 17:20 UTC
(31 minutes ago)
VFR
Wind Visibility
240° at 10 knots 10,000+ meters
Clouds
  • Clear skies
Temperature Dewpoint
21°C / 70°F 5°C / 41°F
Humidity Altimeter Pressure
35% 30.06" Hg 1018 hPa